sensor_id;sensor_type;location;lat;lon;timestamp;temperature;humidity
6948;DHT22;3513;47.664;9.162;2022-09-17T00:00:46;11.40;99.90
6948;DHT22;3513;47.664;9.162;2022-09-17T00:03:12;11.40;99.90
6948;DHT22;3513;47.664;9.162;2022-09-17T00:05:38;11.30;99.90
6948;DHT22;3513;47.664;9.162;2022-09-17T00:08:10;11.20;99.90
6948;DHT22;3513;47.664;9.162;2022-09-17T00:10:38;11.20;99.90
6948;DHT22;3513;47.664;9.162;2022-09-17T00:13:04;11.20;99.90
6948;DHT22;3513;47.664;9.162;2022-09-17T00:15:30;11.20;99.90
6948;DHT22;3513;47.664;9.162;2022-09-17T00:17:56;11.10;99.90
6948;DHT22;3513;47.664;9.162;2022-09-17T00:20:26;11.10;99.90
6948;DHT22;3513;47.664;9.162;2022-09-17T00:22:52;11.00;99.90
6948;DHT22;3513;47.664;9.162;2022-09-17T00:25:19;11.00;99.90
6948;DHT22;3513;47.664;9.162;2022-09-17T00:27:45;11.00;99.90
6948;DHT22;3513;47.664;9.162;2022-09-17T00:30:12;11.10;99.90
6948;DHT22;3513;47.664;9.162;2022-09-17T00:32:38;11.10;99.90
6948;DHT22;3513;47.664;9.162;2022-09-17T00:35:04;11.00;99.90
6948;DHT22;3513;47.664;9.162;2022-09-17T00:37:29;11.10;99.90
6948;DHT22;3513;47.664;9.162;2022-09-17T00:39:55;11.00;99.90
6948;DHT22;3513;47.664;9.162;2022-09-17T00:42:21;11.00;99.90
6948;DHT22;3513;47.664;9.162;2022-09-17T00:44:52;11.00;99.90
6948;DHT22;3513;47.664;9.162;2022-09-17T00:49:53;11.00;99.90
6948;DHT22;3513;47.664;9.162;2022-09-17T00:52:24;11.00;99.90
6948;DHT22;3513;47.664;9.162;2022-09-17T00:54:57;11.00;99.90
6948;DHT22;3513;47.664;9.162;2022-09-17T00:57:24;11.00;99.90
6948;DHT22;3513;47.664;9.162;2022-09-17T00:59:50;11.00;99.90
6948;DHT22;3513;47.664;9.162;2022-09-17T01:02:16;11.00;99.90
6948;DHT22;3513;47.664;9.162;2022-09-17T01:04:42;11.00;99.90
6948;DHT22;3513;47.664;9.162;2022-09-17T01:09:45;11.00;99.90
6948;DHT22;3513;47.664;9.162;2022-09-17T01:15:20;11.00;99.90
6948;DHT22;3513;47.664;9.162;2022-09-17T01:35:36;10.90;99.90
6948;DHT22;3513;47.664;9.162;2022-09-17T01:38:28;10.90;99.90
6948;DHT22;3513;47.664;9.162;2022-09-17T01:43:54;12.20;99.90
6948;DHT22;3513;47.664;9.162;2022-09-17T01:46:29;11.00;99.90
6948;DHT22;3513;47.664;9.162;2022-09-17T01:48:59;10.90;99.90
6948;DHT22;3513;47.664;9.162;2022-09-17T01:51:29;10.90;99.90
6948;DHT22;3513;47.664;9.162;2022-09-17T01:54:18;10.90;99.90
6948;DHT22;3513;47.664;9.162;2022-09-17T01:56:46;10.90;99.90
6948;DHT22;3513;47.664;9.162;2022-09-17T01:59:21;10.90;99.90
6948;DHT22;3513;47.664;9.162;2022-09-17T02:01:50;10.90;99.90
6948;DHT22;3513;47.664;9.162;2022-09-17T02:04:30;10.90;99.90
6948;DHT22;3513;47.664;9.162;2022-09-17T02:07:02;10.90;99.90
6948;DHT22;3513;47.664;9.162;2022-09-17T02:09:41;10.80;99.90
6948;DHT22;3513;47.664;9.162;2022-09-17T02:12:12;10.80;99.90
6948;DHT22;3513;47.664;9.162;2022-09-17T02:14:46;10.80;99.90
6948;DHT22;3513;47.664;9.162;2022-09-17T02:17:23;10.80;99.90
6948;DHT22;3513;47.664;9.162;2022-09-17T02:19:51;10.80;99.90
6948;DHT22;3513;47.664;9.162;2022-09-17T02:22:22;10.80;99.90
6948;DHT22;3513;47.664;9.162;2022-09-17T02:24:59;10.80;99.90
6948;DHT22;3513;47.664;9.162;2022-09-17T02:27:51;10.80;99.90
6948;DHT22;3513;47.664;9.162;2022-09-17T02:30:19;10.80;99.90
6948;DHT22;3513;47.664;9.162;2022-09-17T02:32:45;10.70;99.90
6948;DHT22;3513;47.664;9.162;2022-09-17T02:35:12;10.70;99.90
6948;DHT22;3513;47.664;9.162;2022-09-17T02:37:42;10.80;99.90
6948;DHT22;3513;47.664;9.162;2022-09-17T02:40:12;10.70;99.90
6948;DHT22;3513;47.664;9.162;2022-09-17T02:45:53;10.70;99.60
6948;DHT22;3513;47.664;9.162;2022-09-17T02:48:23;10.70;99.50
6948;DHT22;3513;47.664;9.162;2022-09-17T03:02:16;10.60;99.30
6948;DHT22;3513;47.664;9.162;2022-09-17T03:04:44;10.60;99.70
6948;DHT22;3513;47.664;9.162;2022-09-17T03:07:12;10.50;99.90
6948;DHT22;3513;47.664;9.162;2022-09-17T03:09:39;10.40;99.90
6948;DHT22;3513;47.664;9.162;2022-09-17T03:12:08;10.30;99.90
6948;DHT22;3513;47.664;9.162;2022-09-17T03:14:34;10.30;99.90
6948;DHT22;3513;47.664;9.162;2022-09-17T03:17:00;10.30;99.90
6948;DHT22;3513;47.664;9.162;2022-09-17T03:19:25;10.40;99.90
6948;DHT22;3513;47.664;9.162;2022-09-17T03:21:52;10.60;99.90
6948;DHT22;3513;47.664;9.162;2022-09-17T03:24:18;10.50;99.90
6948;DHT22;3513;47.664;9.162;2022-09-17T03:26:43;10.40;99.90
6948;DHT22;3513;47.664;9.162;2022-09-17T03:29:12;10.30;99.90
6948;DHT22;3513;47.664;9.162;2022-09-17T03:31:37;10.30;99.90
6948;DHT22;3513;47.664;9.162;2022-09-17T03:34:03;10.30;99.90
6948;DHT22;3513;47.664;9.162;2022-09-17T03:36:29;10.30;99.90
6948;DHT22;3513;47.664;9.162;2022-09-17T03:38:56;10.30;99.90
6948;DHT22;3513;47.664;9.162;2022-09-17T03:41:22;10.30;99.90
6948;DHT22;3513;47.664;9.162;2022-09-17T03:43:47;10.30;99.90
6948;DHT22;3513;47.664;9.162;2022-09-17T03:46:13;10.40;99.90
6948;DHT22;3513;47.664;9.162;2022-09-17T03:48:38;10.50;99.90
6948;DHT22;3513;47.664;9.162;2022-09-17T03:51:05;10.60;99.90
6948;DHT22;3513;47.664;9.162;2022-09-17T03:53:31;10.60;99.90
6948;DHT22;3513;47.664;9.162;2022-09-17T03:56:02;10.70;99.90
6948;DHT22;3513;47.664;9.162;2022-09-17T03:58:29;10.60;99.90
6948;DHT22;3513;47.664;9.162;2022-09-17T04:00:55;10.70;99.90
6948;DHT22;3513;47.664;9.162;2022-09-17T04:03:28;10.80;99.90
6948;DHT22;3513;47.664;9.162;2022-09-17T04:05:54;10.60;99.90
6948;DHT22;3513;47.664;9.162;2022-09-17T04:08:19;10.60;99.90
6948;DHT22;3513;47.664;9.162;2022-09-17T04:10:46;10.60;99.90
6948;DHT22;3513;47.664;9.162;2022-09-17T04:13:12;10.50;99.90
6948;DHT22;3513;47.664;9.162;2022-09-17T04:15:38;10.60;99.90
6948;DHT22;3513;47.664;9.162;2022-09-17T04:18:04;10.50;99.90
6948;DHT22;3513;47.664;9.162;2022-09-17T04:20:30;10.40;99.90
6948;DHT22;3513;47.664;9.162;2022-09-17T04:22:56;10.40;99.90
6948;DHT22;3513;47.664;9.162;2022-09-17T04:25:22;10.40;99.90
6948;DHT22;3513;47.664;9.162;2022-09-17T04:27:47;10.40;99.90
6948;DHT22;3513;47.664;9.162;2022-09-17T04:30:13;10.40;99.90
6948;DHT22;3513;47.664;9.162;2022-09-17T04:32:39;10.40;99.90
6948;DHT22;3513;47.664;9.162;2022-09-17T04:35:05;10.40;99.90
6948;DHT22;3513;47.664;9.162;2022-09-17T04:37:31;10.70;99.90
6948;DHT22;3513;47.664;9.162;2022-09-17T04:39:58;10.60;99.90
6948;DHT22;3513;47.664;9.162;2022-09-17T04:42:24;9.70;99.90
6948;DHT22;3513;47.664;9.162;2022-09-17T04:44:50;10.70;99.90
6948;DHT22;3513;47.664;9.162;2022-09-17T04:47:15;10.50;99.90
6948;DHT22;3513;47.664;9.162;2022-09-17T04:49:41;10.70;99.90
6948;DHT22;3513;47.664;9.162;2022-09-17T04:52:07;10.70;99.90
6948;DHT22;3513;47.664;9.162;2022-09-17T04:54:33;10.80;99.90
6948;DHT22;3513;47.664;9.162;2022-09-17T04:56:59;10.60;99.90
6948;DHT22;3513;47.664;9.162;2022-09-17T04:59:26;10.70;99.90
6948;DHT22;3513;47.664;9.162;2022-09-17T05:01:52;10.70;99.90
6948;DHT22;3513;47.664;9.162;2022-09-17T05:04:17;10.70;99.90
6948;DHT22;3513;47.664;9.162;2022-09-17T05:06:43;10.70;99.90
6948;DHT22;3513;47.664;9.162;2022-09-17T05:09:09;10.70;99.90
6948;DHT22;3513;47.664;9.162;2022-09-17T05:11:34;10.70;99.90
6948;DHT22;3513;47.664;9.162;2022-09-17T05:14:00;10.60;99.90
6948;DHT22;3513;47.664;9.162;2022-09-17T05:16:26;10.60;99.90
6948;DHT22;3513;47.664;9.162;2022-09-17T05:18:51;10.40;99.90
6948;DHT22;3513;47.664;9.162;2022-09-17T05:21:18;10.50;99.90
6948;DHT22;3513;47.664;9.162;2022-09-17T05:23:45;10.50;99.90
6948;DHT22;3513;47.664;9.162;2022-09-17T05:26:10;10.40;99.90
6948;DHT22;3513;47.664;9.162;2022-09-17T05:28:36;10.30;99.90
6948;DHT22;3513;47.664;9.162;2022-09-17T05:31:02;10.30;99.90
6948;DHT22;3513;47.664;9.162;2022-09-17T05:33:28;10.30;99.90
6948;DHT22;3513;47.664;9.162;2022-09-17T05:35:53;10.30;99.90
6948;DHT22;3513;47.664;9.162;2022-09-17T05:38:19;10.20;99.90
6948;DHT22;3513;47.664;9.162;2022-09-17T05:40:45;10.20;99.90
6948;DHT22;3513;47.664;9.162;2022-09-17T05:43:11;10.30;99.90
6948;DHT22;3513;47.664;9.162;2022-09-17T05:45:37;10.30;99.90
6948;DHT22;3513;47.664;9.162;2022-09-17T05:48:04;10.30;99.90
6948;DHT22;3513;47.664;9.162;2022-09-17T05:50:31;10.20;99.90
6948;DHT22;3513;47.664;9.162;2022-09-17T05:53:09;10.30;99.90
6948;DHT22;3513;47.664;9.162;2022-09-17T05:55:35;10.30;99.90
6948;DHT22;3513;47.664;9.162;2022-09-17T05:58:11;10.50;99.90
6948;DHT22;3513;47.664;9.162;2022-09-17T06:00:38;10.70;99.90
6948;DHT22;3513;47.664;9.162;2022-09-17T06:03:04;10.70;99.90
6948;DHT22;3513;47.664;9.162;2022-09-17T06:05:30;10.70;99.90
6948;DHT22;3513;47.664;9.162;2022-09-17T06:07:55;10.70;99.90
6948;DHT22;3513;47.664;9.162;2022-09-17T06:10:21;10.70;99.90
6948;DHT22;3513;47.664;9.162;2022-09-17T06:12:46;10.70;99.90
6948;DHT22;3513;47.664;9.162;2022-09-17T06:15:12;10.60;99.90
6948;DHT22;3513;47.664;9.162;2022-09-17T06:17:40;10.60;99.90
6948;DHT22;3513;47.664;9.162;2022-09-17T06:20:08;10.50;99.90
6948;DHT22;3513;47.664;9.162;2022-09-17T06:22:34;10.50;99.90
6948;DHT22;3513;47.664;9.162;2022-09-17T06:25:00;10.40;99.90
6948;DHT22;3513;47.664;9.162;2022-09-17T06:27:31;10.40;99.90
6948;DHT22;3513;47.664;9.162;2022-09-17T06:29:57;10.50;99.90
6948;DHT22;3513;47.664;9.162;2022-09-17T06:32:23;10.50;99.90
6948;DHT22;3513;47.664;9.162;2022-09-17T06:34:48;10.40;99.90
6948;DHT22;3513;47.664;9.162;2022-09-17T06:37:14;10.40;99.90
6948;DHT22;3513;47.664;9.162;2022-09-17T06:39:40;10.40;99.90
6948;DHT22;3513;47.664;9.162;2022-09-17T06:42:06;10.30;99.90
6948;DHT22;3513;47.664;9.162;2022-09-17T06:44:31;10.40;99.90
6948;DHT22;3513;47.664;9.162;2022-09-17T06:46:57;10.40;99.90
6948;DHT22;3513;47.664;9.162;2022-09-17T06:49:23;10.30;99.90
6948;DHT22;3513;47.664;9.162;2022-09-17T06:51:49;10.30;99.90
6948;DHT22;3513;47.664;9.162;2022-09-17T06:54:14;10.30;99.90
6948;DHT22;3513;47.664;9.162;2022-09-17T06:56:40;10.40;99.90
6948;DHT22;3513;47.664;9.162;2022-09-17T06:59:06;10.40;99.90
6948;DHT22;3513;47.664;9.162;2022-09-17T07:01:31;10.40;99.90
6948;DHT22;3513;47.664;9.162;2022-09-17T07:03:57;10.40;99.90
6948;DHT22;3513;47.664;9.162;2022-09-17T07:06:23;10.40;99.90
6948;DHT22;3513;47.664;9.162;2022-09-17T07:08:48;10.50;99.90
6948;DHT22;3513;47.664;9.162;2022-09-17T07:11:14;10.50;99.90
6948;DHT22;3513;47.664;9.162;2022-09-17T07:13:43;10.50;99.90
6948;DHT22;3513;47.664;9.162;2022-09-17T07:16:09;10.60;99.90
6948;DHT22;3513;47.664;9.162;2022-09-17T07:18:35;10.50;99.90
6948;DHT22;3513;47.664;9.162;2022-09-17T07:21:04;10.60;99.90
6948;DHT22;3513;47.664;9.162;2022-09-17T07:23:35;10.60;99.90
6948;DHT22;3513;47.664;9.162;2022-09-17T07:26:03;10.60;99.90
6948;DHT22;3513;47.664;9.162;2022-09-17T07:28:29;10.70;99.90
6948;DHT22;3513;47.664;9.162;2022-09-17T07:30:55;10.80;99.90
6948;DHT22;3513;47.664;9.162;2022-09-17T07:33:25;10.90;99.90
6948;DHT22;3513;47.664;9.162;2022-09-17T07:35:55;10.90;99.90
6948;DHT22;3513;47.664;9.162;2022-09-17T07:38:22;11.00;99.90
6948;DHT22;3513;47.664;9.162;2022-09-17T07:40:57;11.10;99.90
6948;DHT22;3513;47.664;9.162;2022-09-17T07:43:28;11.20;99.90
6948;DHT22;3513;47.664;9.162;2022-09-17T07:45:56;11.30;99.90
6948;DHT22;3513;47.664;9.162;2022-09-17T07:48:22;11.30;99.90
6948;DHT22;3513;47.664;9.162;2022-09-17T07:50:47;11.40;99.60
6948;DHT22;3513;47.664;9.162;2022-09-17T07:53:13;11.30;99.00
6948;DHT22;3513;47.664;9.162;2022-09-17T07:55:39;11.30;98.40
6948;DHT22;3513;47.664;9.162;2022-09-17T07:58:04;11.30;99.70
6948;DHT22;3513;47.664;9.162;2022-09-17T08:00:30;11.30;99.00
6948;DHT22;3513;47.664;9.162;2022-09-17T08:02:56;11.40;99.00
6948;DHT22;3513;47.664;9.162;2022-09-17T08:05:23;11.50;98.60
6948;DHT22;3513;47.664;9.162;2022-09-17T08:07:53;11.70;99.20
6948;DHT22;3513;47.664;9.162;2022-09-17T08:10:20;11.80;99.90
6948;DHT22;3513;47.664;9.162;2022-09-17T08:12:54;12.00;99.30
6948;DHT22;3513;47.664;9.162;2022-09-17T08:15:19;12.30;98.10
6948;DHT22;3513;47.664;9.162;2022-09-17T08:17:46;12.50;98.60
6948;DHT22;3513;47.664;9.162;2022-09-17T08:20:12;12.60;97.60
6948;DHT22;3513;47.664;9.162;2022-09-17T08:22:38;12.70;96.70
6948;DHT22;3513;47.664;9.162;2022-09-17T08:25:05;12.70;96.70
6948;DHT22;3513;47.664;9.162;2022-09-17T08:27:31;12.70;96.30
6948;DHT22;3513;47.664;9.162;2022-09-17T08:29:57;12.80;95.40
6948;DHT22;3513;47.664;9.162;2022-09-17T08:32:24;12.80;95.70
6948;DHT22;3513;47.664;9.162;2022-09-17T08:34:50;12.80;96.10
6948;DHT22;3513;47.664;9.162;2022-09-17T08:37:15;12.90;95.60
6948;DHT22;3513;47.664;9.162;2022-09-17T08:39:41;12.80;95.90
6948;DHT22;3513;47.664;9.162;2022-09-17T08:45:04;12.90;93.50
6948;DHT22;3513;47.664;9.162;2022-09-17T08:47:34;13.10;94.30
6948;DHT22;3513;47.664;9.162;2022-09-17T08:50:05;13.10;96.10
6948;DHT22;3513;47.664;9.162;2022-09-17T08:52:45;13.30;94.10
6948;DHT22;3513;47.664;9.162;2022-09-17T09:00:54;13.30;95.10
6948;DHT22;3513;47.664;9.162;2022-09-17T09:06:22;13.50;93.80
6948;DHT22;3513;47.664;9.162;2022-09-17T09:09:13;13.40;92.30
6948;DHT22;3513;47.664;9.162;2022-09-17T09:11:41;13.50;92.50
6948;DHT22;3513;47.664;9.162;2022-09-17T09:14:26;13.60;93.00
6948;DHT22;3513;47.664;9.162;2022-09-17T09:16:54;13.60;90.50
6948;DHT22;3513;47.664;9.162;2022-09-17T09:24:25;13.70;90.80
6948;DHT22;3513;47.664;9.162;2022-09-17T09:35:00;13.40;93.20
6948;DHT22;3513;47.664;9.162;2022-09-17T09:37:32;13.60;92.10
6948;DHT22;3513;47.664;9.162;2022-09-17T09:43:24;13.40;90.90
6948;DHT22;3513;47.664;9.162;2022-09-17T09:48:43;13.60;92.50
6948;DHT22;3513;47.664;9.162;2022-09-17T09:59:12;13.90;91.30
6948;DHT22;3513;47.664;9.162;2022-09-17T10:01:40;13.70;90.50
6948;DHT22;3513;47.664;9.162;2022-09-17T10:04:21;13.90;91.20
6948;DHT22;3513;47.664;9.162;2022-09-17T10:06:50;14.00;90.50
6948;DHT22;3513;47.664;9.162;2022-09-17T10:09:18;13.90;90.80
6948;DHT22;3513;47.664;9.162;2022-09-17T10:12:18;13.80;91.00
6948;DHT22;3513;47.664;9.162;2022-09-17T10:14:46;13.80;91.60
6948;DHT22;3513;47.664;9.162;2022-09-17T10:17:25;13.70;90.70
6948;DHT22;3513;47.664;9.162;2022-09-17T10:22:34;13.80;90.10
6948;DHT22;3513;47.664;9.162;2022-09-17T10:25:02;13.70;90.10
6948;DHT22;3513;47.664;9.162;2022-09-17T10:27:30;13.60;89.00
6948;DHT22;3513;47.664;9.162;2022-09-17T10:32:33;13.30;91.80
6948;DHT22;3513;47.664;9.162;2022-09-17T10:35:24;13.20;93.00
6948;DHT22;3513;47.664;9.162;2022-09-17T10:37:51;13.10;91.60
6948;DHT22;3513;47.664;9.162;2022-09-17T10:42:46;13.10;93.60
6948;DHT22;3513;47.664;9.162;2022-09-17T10:45:29;13.20;93.40
6948;DHT22;3513;47.664;9.162;2022-09-17T10:47:56;13.20;93.00
6948;DHT22;3513;47.664;9.162;2022-09-17T10:50:26;13.20;92.60
6948;DHT22;3513;47.664;9.162;2022-09-17T10:52:55;13.20;93.00
6948;DHT22;3513;47.664;9.162;2022-09-17T10:55:26;13.30;92.60
6948;DHT22;3513;47.664;9.162;2022-09-17T11:04:01;14.10;92.70
6948;DHT22;3513;47.664;9.162;2022-09-17T11:25:46;12.00;98.40
6948;DHT22;3513;47.664;9.162;2022-09-17T11:36:41;10.60;99.90
6948;DHT22;3513;47.664;9.162;2022-09-17T11:39:15;10.40;99.90
6948;DHT22;3513;47.664;9.162;2022-09-17T11:41:45;10.30;99.90
6948;DHT22;3513;47.664;9.162;2022-09-17T11:44:39;10.40;99.90
6948;DHT22;3513;47.664;9.162;2022-09-17T11:47:12;10.40;99.90
6948;DHT22;3513;47.664;9.162;2022-09-17T11:49:47;10.40;99.90
6948;DHT22;3513;47.664;9.162;2022-09-17T11:52:25;10.50;99.90
6948;DHT22;3513;47.664;9.162;2022-09-17T11:55:25;10.90;99.90
6948;DHT22;3513;47.664;9.162;2022-09-17T11:57:58;10.90;99.90
6948;DHT22;3513;47.664;9.162;2022-09-17T12:00:27;11.10;99.90
6948;DHT22;3513;47.664;9.162;2022-09-17T12:03:26;11.10;99.90
6948;DHT22;3513;47.664;9.162;2022-09-17T12:06:00;11.30;99.90
6948;DHT22;3513;47.664;9.162;2022-09-17T12:08:55;11.40;99.90
6948;DHT22;3513;47.664;9.162;2022-09-17T12:11:39;11.50;99.90
6948;DHT22;3513;47.664;9.162;2022-09-17T12:14:48;11.60;99.90
6948;DHT22;3513;47.664;9.162;2022-09-17T12:17:14;11.70;99.90
6948;DHT22;3513;47.664;9.162;2022-09-17T12:19:45;11.70;99.90
6948;DHT22;3513;47.664;9.162;2022-09-17T12:22:18;11.80;99.90
6948;DHT22;3513;47.664;9.162;2022-09-17T12:24:49;11.90;99.90
6948;DHT22;3513;47.664;9.162;2022-09-17T12:30:13;12.30;99.90
6948;DHT22;3513;47.664;9.162;2022-09-17T13:03:44;13.60;97.40
6948;DHT22;3513;47.664;9.162;2022-09-17T13:09:03;14.00;97.00
6948;DHT22;3513;47.664;9.162;2022-09-17T13:14:18;14.80;95.60
6948;DHT22;3513;47.664;9.162;2022-09-17T13:16:55;14.70;94.40
6948;DHT22;3513;47.664;9.162;2022-09-17T13:19:42;14.20;94.30
6948;DHT22;3513;47.664;9.162;2022-09-17T13:22:19;13.80;97.10
6948;DHT22;3513;47.664;9.162;2022-09-17T13:24:46;13.40;98.20
6948;DHT22;3513;47.664;9.162;2022-09-17T13:27:22;13.00;97.90
6948;DHT22;3513;47.664;9.162;2022-09-17T13:37:35;13.20;98.60
6948;DHT22;3513;47.664;9.162;2022-09-17T13:40:02;13.30;97.60
6948;DHT22;3513;47.664;9.162;2022-09-17T13:42:30;11.40;97.10
6948;DHT22;3513;47.664;9.162;2022-09-17T13:45:10;13.10;98.10
6948;DHT22;3513;47.664;9.162;2022-09-17T13:47:39;13.00;98.90
6948;DHT22;3513;47.664;9.162;2022-09-17T13:52:55;12.40;99.90
6948;DHT22;3513;47.664;9.162;2022-09-17T13:55:52;12.10;99.90
6948;DHT22;3513;47.664;9.162;2022-09-17T14:01:04;11.30;99.90
6948;DHT22;3513;47.664;9.162;2022-09-17T14:19:43;12.80;99.90
6948;DHT22;3513;47.664;9.162;2022-09-17T14:30:15;16.90;92.90
6948;DHT22;3513;47.664;9.162;2022-09-17T14:35:42;17.50;90.60
6948;DHT22;3513;47.664;9.162;2022-09-17T14:40:57;16.50;90.70
6948;DHT22;3513;47.664;9.162;2022-09-17T14:46:34;15.90;95.70
6948;DHT22;3513;47.664;9.162;2022-09-17T14:51:47;15.30;95.10
6948;DHT22;3513;47.664;9.162;2022-09-17T14:54:15;14.70;95.50
6948;DHT22;3513;47.664;9.162;2022-09-17T15:01:54;13.90;96.40
6948;DHT22;3513;47.664;9.162;2022-09-17T15:06:47;13.50;97.90
6948;DHT22;3513;47.664;9.162;2022-09-17T15:11:41;13.30;98.50
6948;DHT22;3513;47.664;9.162;2022-09-17T15:14:24;13.70;96.00
6948;DHT22;3513;47.664;9.162;2022-09-17T15:16:54;14.00;94.90
6948;DHT22;3513;47.664;9.162;2022-09-17T15:19:36;14.30;94.80
6948;DHT22;3513;47.664;9.162;2022-09-17T15:22:08;14.60;94.50
6948;DHT22;3513;47.664;9.162;2022-09-17T15:24:42;14.70;92.90
6948;DHT22;3513;47.664;9.162;2022-09-17T15:27:28;15.30;92.40
6948;DHT22;3513;47.664;9.162;2022-09-17T15:30:04;16.00;91.50
6948;DHT22;3513;47.664;9.162;2022-09-17T15:32:32;16.60;87.90
6948;DHT22;3513;47.664;9.162;2022-09-17T15:37:46;16.80;83.50
6948;DHT22;3513;47.664;9.162;2022-09-17T15:40:36;16.70;84.20
6948;DHT22;3513;47.664;9.162;2022-09-17T15:43:20;16.40;83.60
6948;DHT22;3513;47.664;9.162;2022-09-17T15:45:49;15.90;82.30
6948;DHT22;3513;47.664;9.162;2022-09-17T15:50:56;15.20;85.40
6948;DHT22;3513;47.664;9.162;2022-09-17T15:53:28;14.90;85.30
6948;DHT22;3513;47.664;9.162;2022-09-17T15:56:05;14.70;88.40
6948;DHT22;3513;47.664;9.162;2022-09-17T16:08:45;15.50;88.30
6948;DHT22;3513;47.664;9.162;2022-09-17T16:11:14;15.90;85.90
6948;DHT22;3513;47.664;9.162;2022-09-17T16:13:40;16.10;85.00
6948;DHT22;3513;47.664;9.162;2022-09-17T16:16:07;16.30;82.50
6948;DHT22;3513;47.664;9.162;2022-09-17T16:18:33;16.40;82.20
6948;DHT22;3513;47.664;9.162;2022-09-17T16:20:59;16.40;82.80
6948;DHT22;3513;47.664;9.162;2022-09-17T16:23:24;16.40;83.00
6948;DHT22;3513;47.664;9.162;2022-09-17T16:25:50;16.50;83.00
6948;DHT22;3513;47.664;9.162;2022-09-17T16:28:18;16.40;82.00
6948;DHT22;3513;47.664;9.162;2022-09-17T16:30:46;16.30;82.60
6948;DHT22;3513;47.664;9.162;2022-09-17T16:33:13;16.30;81.40
6948;DHT22;3513;47.664;9.162;2022-09-17T16:35:40;16.40;82.20
6948;DHT22;3513;47.664;9.162;2022-09-17T16:38:06;15.90;82.10
6948;DHT22;3513;47.664;9.162;2022-09-17T16:40:32;15.90;83.50
6948;DHT22;3513;47.664;9.162;2022-09-17T16:43:00;15.70;84.80
6948;DHT22;3513;47.664;9.162;2022-09-17T16:45:26;15.70;84.90
6948;DHT22;3513;47.664;9.162;2022-09-17T16:47:52;15.50;85.20
6948;DHT22;3513;47.664;9.162;2022-09-17T16:50:18;15.50;86.10
6948;DHT22;3513;47.664;9.162;2022-09-17T16:52:44;15.50;85.90
6948;DHT22;3513;47.664;9.162;2022-09-17T16:55:12;15.30;85.30
6948;DHT22;3513;47.664;9.162;2022-09-17T16:57:38;14.90;84.00
6948;DHT22;3513;47.664;9.162;2022-09-17T17:00:05;14.60;85.80
6948;DHT22;3513;47.664;9.162;2022-09-17T17:02:31;14.20;86.50
6948;DHT22;3513;47.664;9.162;2022-09-17T17:04:57;13.80;86.10
6948;DHT22;3513;47.664;9.162;2022-09-17T17:07:23;13.30;88.00
6948;DHT22;3513;47.664;9.162;2022-09-17T17:09:48;13.10;90.40
6948;DHT22;3513;47.664;9.162;2022-09-17T17:12:14;12.90;91.10
6948;DHT22;3513;47.664;9.162;2022-09-17T17:14:40;12.60;92.20
6948;DHT22;3513;47.664;9.162;2022-09-17T17:17:06;12.50;92.60
6948;DHT22;3513;47.664;9.162;2022-09-17T17:19:31;12.40;93.30
6948;DHT22;3513;47.664;9.162;2022-09-17T17:21:59;12.30;93.90
6948;DHT22;3513;47.664;9.162;2022-09-17T17:24:24;12.20;94.40
6948;DHT22;3513;47.664;9.162;2022-09-17T17:26:50;12.10;94.70
6948;DHT22;3513;47.664;9.162;2022-09-17T17:29:16;11.90;95.20
6948;DHT22;3513;47.664;9.162;2022-09-17T17:31:42;11.90;95.60
6948;DHT22;3513;47.664;9.162;2022-09-17T17:34:07;11.80;95.20
6948;DHT22;3513;47.664;9.162;2022-09-17T17:36:33;11.70;95.80
6948;DHT22;3513;47.664;9.162;2022-09-17T17:38:59;11.70;95.70
6948;DHT22;3513;47.664;9.162;2022-09-17T17:41:25;11.80;95.60
6948;DHT22;3513;47.664;9.162;2022-09-17T17:43:53;11.70;95.70
6948;DHT22;3513;47.664;9.162;2022-09-17T17:46:19;11.70;95.60
6948;DHT22;3513;47.664;9.162;2022-09-17T17:48:45;11.70;96.00
6948;DHT22;3513;47.664;9.162;2022-09-17T17:51:11;11.60;96.50
6948;DHT22;3513;47.664;9.162;2022-09-17T17:53:41;11.70;96.60
6948;DHT22;3513;47.664;9.162;2022-09-17T17:56:08;11.70;96.40
6948;DHT22;3513;47.664;9.162;2022-09-17T17:58:34;11.60;96.60
6948;DHT22;3513;47.664;9.162;2022-09-17T18:01:09;11.60;96.80
6948;DHT22;3513;47.664;9.162;2022-09-17T18:03:35;11.60;97.30
6948;DHT22;3513;47.664;9.162;2022-09-17T18:06:03;11.50;97.60
6948;DHT22;3513;47.664;9.162;2022-09-17T18:08:29;11.50;97.50
6948;DHT22;3513;47.664;9.162;2022-09-17T18:10:56;11.50;97.50
6948;DHT22;3513;47.664;9.162;2022-09-17T18:13:23;11.50;98.10
6948;DHT22;3513;47.664;9.162;2022-09-17T18:15:54;11.50;97.80
6948;DHT22;3513;47.664;9.162;2022-09-17T18:18:21;11.50;97.80
6948;DHT22;3513;47.664;9.162;2022-09-17T18:20:47;11.50;98.20
6948;DHT22;3513;47.664;9.162;2022-09-17T18:23:13;11.40;98.30
6948;DHT22;3513;47.664;9.162;2022-09-17T18:25:39;11.50;97.70
6948;DHT22;3513;47.664;9.162;2022-09-17T18:28:04;11.50;97.10
6948;DHT22;3513;47.664;9.162;2022-09-17T18:30:30;11.50;97.50
6948;DHT22;3513;47.664;9.162;2022-09-17T18:32:56;11.60;98.70
6948;DHT22;3513;47.664;9.162;2022-09-17T18:35:22;11.80;98.00
6948;DHT22;3513;47.664;9.162;2022-09-17T18:37:48;11.80;97.80
6948;DHT22;3513;47.664;9.162;2022-09-17T18:40:14;11.80;97.90
6948;DHT22;3513;47.664;9.162;2022-09-17T18:42:40;11.80;97.20
6948;DHT22;3513;47.664;9.162;2022-09-17T18:45:06;11.70;97.20
6948;DHT22;3513;47.664;9.162;2022-09-17T18:47:32;11.70;97.30
6948;DHT22;3513;47.664;9.162;2022-09-17T18:49:57;11.70;97.10
6948;DHT22;3513;47.664;9.162;2022-09-17T18:52:23;13.60;98.30
6948;DHT22;3513;47.664;9.162;2022-09-17T18:54:48;11.60;97.30
6948;DHT22;3513;47.664;9.162;2022-09-17T18:57:14;11.60;97.80
6948;DHT22;3513;47.664;9.162;2022-09-17T18:59:39;11.50;98.60
6948;DHT22;3513;47.664;9.162;2022-09-17T19:02:07;11.50;98.50
6948;DHT22;3513;47.664;9.162;2022-09-17T19:04:33;11.40;98.90
6948;DHT22;3513;47.664;9.162;2022-09-17T19:06:58;11.30;99.00
6948;DHT22;3513;47.664;9.162;2022-09-17T19:09:24;11.40;99.30
6948;DHT22;3513;47.664;9.162;2022-09-17T19:11:50;11.40;98.60
6948;DHT22;3513;47.664;9.162;2022-09-17T19:14:15;11.40;99.30
6948;DHT22;3513;47.664;9.162;2022-09-17T19:16:41;11.40;99.90
6948;DHT22;3513;47.664;9.162;2022-09-17T19:19:06;11.30;99.90
6948;DHT22;3513;47.664;9.162;2022-09-17T19:21:32;11.10;99.90
6948;DHT22;3513;47.664;9.162;2022-09-17T19:23:58;11.10;99.90
6948;DHT22;3513;47.664;9.162;2022-09-17T19:26:25;11.10;99.90
6948;DHT22;3513;47.664;9.162;2022-09-17T19:28:53;11.00;99.90
6948;DHT22;3513;47.664;9.162;2022-09-17T19:31:19;11.00;99.90
6948;DHT22;3513;47.664;9.162;2022-09-17T19:33:46;11.00;99.90
6948;DHT22;3513;47.664;9.162;2022-09-17T19:36:14;10.90;99.90
6948;DHT22;3513;47.664;9.162;2022-09-17T19:38:41;10.90;99.90
6948;DHT22;3513;47.664;9.162;2022-09-17T19:41:18;11.00;99.90
6948;DHT22;3513;47.664;9.162;2022-09-17T19:43:45;11.00;99.90
6948;DHT22;3513;47.664;9.162;2022-09-17T19:46:12;11.00;99.90
6948;DHT22;3513;47.664;9.162;2022-09-17T19:48:54;10.90;99.90
6948;DHT22;3513;47.664;9.162;2022-09-17T19:51:22;10.90;99.90
6948;DHT22;3513;47.664;9.162;2022-09-17T19:53:48;10.90;99.90
6948;DHT22;3513;47.664;9.162;2022-09-17T19:56:16;10.90;99.90
6948;DHT22;3513;47.664;9.162;2022-09-17T19:58:42;10.80;99.90
6948;DHT22;3513;47.664;9.162;2022-09-17T20:01:08;10.80;99.90
6948;DHT22;3513;47.664;9.162;2022-09-17T20:03:34;10.80;99.90
6948;DHT22;3513;47.664;9.162;2022-09-17T20:06:04;10.80;99.90
6948;DHT22;3513;47.664;9.162;2022-09-17T20:08:30;10.70;99.90
6948;DHT22;3513;47.664;9.162;2022-09-17T20:11:02;10.70;99.90